ProRodeoTv.Com
Red

PRCA Stock Statistics

SEARCH BY:
Stock Rodeo Contestant Stock Contractor

Aaron Pass

EVENT:
Unofficial results reflect placement at time of Web posting and can change.

SEASON BREAKDOWN

Season Attempts Qual Rides Re-rides Ride %
2017 23 10 0 43.48 %
2016 16 3 0 18.75 %
2015 73 28 0 38.36 %
2014 92 39 0 42.39 %
2013 46 12 0 26.09 %
2011 49 9 0 18.37 %
Totals 299 101 0 0.00 %

RODEO DETAIL

Date Location Rodeo SC Brand Ride Comments Stock Score Contestant Score
6/9/2017 Coleman, TX Coleman PRCA Rodeo SS 804 0.00 23.00 / 22.50 0.00 / 0.00
6/8/2017 Gladewater, TX Gladewater Round-Up Rodeo RG A13 87.50 22.00 / 21.50 22.00 / 22.00
6/7/2017 Gladewater, TX Gladewater Round-Up Xtreme Bulls SS 123 85.00 21.00 / 21.50 21.00 / 21.50
6/6/2017 Weatherford, TX Parker County Sheriff s Posse Xtreme Bulls UR 1472 0.00 22.00 / 22.00 0.00 / 0.00
6/3/2017 Fort Smith, AR Old Fort Days Rodeo AN LT 0.00 23.00 / 22.50 0.00 / 0.00
6/2/2017 Hugo, OK Hugo PRCA Rodeo RH 47 0.00 21.00 / 21.50 0.00 / 0.00
5/28/2017 Claremore, OK Will Rogers Stampede CR 49 86.50 22.00 / 21.00 22.00 / 21.50
5/20/2017 Jacksonville, TX Tops In Texas Rodeo PC 211 70.00 17.00 / 17.00 17.00 / 19.00
5/19/2017 Perkins, OK Two Hands Memorial Rodeo DK 03 88.00 21.00 / 22.00 22.00 / 23.00
5/18/2017 Killeen, TX Rodeo Killeen AN -011 87.00 21.00 / 21.50 22.00 / 22.50
5/6/2017 Guymon, OK Guymon Pioneer Days Rodeo PC 231 0.00 22.50 / 22.00 0.00 / 0.00
4/28/2017 Corpus Christi, TX Rodeo Corpus Christi FR F99 0.00 20.50 / 20.00 0.00 / 0.00
4/27/2017 Wharton, TX Wharton County Youth Fair - Xtreme Bulls PC 231 89.00 22.00 / 22.00 22.50 / 22.50
4/26/2017 Lufkin, TX Angelina County Benefit Rodeo UP 803 81.00 20.00 / 20.00 21.00 / 20.00
4/22/2017 Longview, TX Longview PRCA Rodeo AN T11 0.00 22.50 / 22.00 0.00 / 0.00
4/21/2017 Wichita Falls, TX Wichita Falls PRCA Rodeo KL 30 0.00 21.00 / 20.50 0.00 / 0.00
4/14/2017 El Paso, AR Central Ark PRCA Rodeo AN 112 0.00 22.00 / 22.50 0.00 / 0.00
3/25/2017 Austin, TX Rodeo Austin AN Y43 0.00 22.00 / 22.00 0.00 / 0.00
3/23/2017 Austin, TX Rodeo Austin AN 223 0.00 20.00 / 21.00 0.00 / 0.00
3/15/2017 Austin, TX Rodeo Austin RM 130 88.00 22.00 / 21.50 22.00 / 22.50
2/18/2017 Los Fresnos, TX Los Fresnos PRCA Rodeo SS 23 0.00 22.00 / 22.50 0.00 / 0.00
2/11/2017 Jackson, MS Dixie National Rodeo BR X51 0.00 22.00 / 22.00 0.00 / 0.00
2/4/2017 Lake Charles, LA SW District Fat Stock Show & Rodeo SH 811 82.00 20.00 / 19.50 22.00 / 20.50
Page of 1
Per Page
 
 
 
Copyright © 2017 Professional Rodeo Cowboys Association. All rights reserved. No portion of ProRodeo.com may be duplicated, redistributed or manipulated in any form. By accessing any information beyond this page, you agree to abide by the Terms of Use.
PRCA Wrangler National Finals Rodeo Wrangler Champions Challenge Justin Boots Playoffs Xtreme Bulls RAM National Circuit Finals Rodeo ProRodeo Gear ProRodeoTv.com var gaJsHost = (("https:" == document.location.protocol) ? "https://ssl." : "http://www."); document.write(unescape("%3Cscript src='" + gaJsHost + "google-analytics.com/ga.js' type='text/javascript'%3E%3C/script%3E"));